createdAt,value
2022-09-06T00:12:46.080Z,12
2022-09-06T00:41:29.919Z,12
2022-09-06T01:10:16.971Z,10
2022-09-06T01:38:51.798Z,14
2022-09-06T02:07:37.256Z,12
2022-09-06T02:36:25.079Z,12
2022-09-06T03:05:01.056Z,12
2022-09-06T03:33:48.532Z,12
2022-09-06T04:02:34.380Z,10
2022-09-06T04:31:09.328Z,12
2022-09-06T04:59:59.165Z,14
2022-09-06T05:28:35.496Z,13
2022-09-06T05:57:07.184Z,15
2022-09-06T06:25:37.265Z,15
2022-09-06T06:54:21.100Z,14
2022-09-06T07:22:51.418Z,13
2022-09-06T07:51:17.573Z,12
2022-09-06T08:19:35.516Z,15
2022-09-06T08:48:02.284Z,14
2022-09-06T09:16:27.513Z,13
2022-09-06T09:44:59.007Z,13
2022-09-06T10:42:04.521Z,9
2022-09-06T11:10:31.113Z,9
2022-09-06T11:38:56.170Z,7
2022-09-06T12:07:46.956Z,7
2022-09-06T12:36:09.257Z,4
2022-09-06T13:04:45.447Z,7
2022-09-06T13:33:06.585Z,8
2022-09-06T14:01:30.961Z,7
2022-09-06T14:29:58.984Z,8
2022-09-06T14:58:19.054Z,7
2022-09-06T15:26:44.333Z,7
2022-09-06T15:55:15.569Z,7
2022-09-06T16:23:34.842Z,6
2022-09-06T16:52:07.424Z,5
2022-09-06T17:20:42.179Z,5
2022-09-06T17:49:10.347Z,4
2022-09-06T18:17:27.205Z,4
2022-09-06T18:45:51.802Z,4
2022-09-06T19:14:19.987Z,4
2022-09-06T19:42:53.947Z,3
2022-09-06T20:11:27.754Z,3
2022-09-06T20:39:58.415Z,3
2022-09-06T21:08:35.055Z,3
2022-09-06T21:36:56.208Z,4
2022-09-06T22:05:36.397Z,5
2022-09-06T22:34:20.350Z,4
2022-09-06T23:03:04.542Z,4
2022-09-06T23:31:44.610Z,4
